Time;durP1;ratioP1;P1;durP2;ratioP2;P2;SDS_P1;SDS_P2;PMS_P1;PMS_P2;Temp;Humidity;BMP_temperature;BMP_pressure;BME280_temperature;BME280_humidity;BME280_pressure;Samples;Min_cycle;Max_cycle;Signal;HPM_P1;HPM_P2
2023/07/31 00:00:05;;;;;;;9.10;3.67;;;17.50;99.90;;;;;;4167590;28;20037;-65
2023/07/31 00:02:06;;;;;;;9.40;3.88;;;17.50;99.90;;;;;;4173805;28;20036;-64
2023/07/31 00:04:06;;;;;;;7.28;3.33;;;17.60;99.90;;;;;;4165279;28;20040;-65
2023/07/31 00:06:07;;;;;;;10.77;3.95;;;17.50;99.90;;;;;;4170676;28;20033;-65
2023/07/31 00:08:08;;;;;;;7.63;3.53;;;17.60;99.90;;;;;;4162018;28;20060;-65
2023/07/31 00:10:08;;;;;;;10.15;3.80;;;17.50;99.90;;;;;;4159741;28;20049;-67
2023/07/31 00:12:09;;;;;;;7.55;3.45;;;17.50;99.90;;;;;;4162580;28;20117;-65
2023/07/31 00:14:10;;;;;;;10.95;3.97;;;17.50;99.90;;;;;;4166140;28;20037;-65
2023/07/31 00:16:10;;;;;;;9.65;4.03;;;17.60;99.90;;;;;;4171605;28;20037;-65
2023/07/31 00:18:11;;;;;;;10.98;3.88;;;17.60;99.90;;;;;;4148443;28;20092;-65
2023/07/31 00:20:11;;;;;;;15.63;4.82;;;17.50;99.90;;;;;;4175722;28;20029;-65
2023/07/31 00:22:12;;;;;;;10.38;4.45;;;17.50;99.90;;;;;;4168514;28;20654;-65
2023/07/31 00:24:13;;;;;;;8.73;4.13;;;17.50;99.90;;;;;;4172567;28;20037;-65
2023/07/31 00:26:13;;;;;;;9.82;4.20;;;17.50;99.90;;;;;;4166766;28;20032;-65
2023/07/31 00:28:14;;;;;;;7.13;3.42;;;17.50;99.90;;;;;;4165156;28;20036;-65
2023/07/31 00:30:14;;;;;;;12.52;4.30;;;17.50;99.90;;;;;;4160783;28;20428;-65
2023/07/31 00:32:15;;;;;;;10.75;4.25;;;17.50;99.90;;;;;;4176016;28;20036;-65
2023/07/31 00:34:16;;;;;;;7.72;3.45;;;17.50;99.90;;;;;;4168827;28;20021;-65
2023/07/31 00:36:17;;;;;;;9.25;3.70;;;17.50;99.90;;;;;;4174273;28;20507;-65
2023/07/31 00:38:18;;;;;;;9.55;3.90;;;17.60;99.90;;;;;;4174050;28;20052;-65
2023/07/31 00:40:18;;;;;;;10.25;4.55;;;17.50;99.90;;;;;;4177154;28;20104;-65
2023/07/31 00:42:19;;;;;;;12.70;4.93;;;17.50;99.90;;;;;;4177800;28;20026;-65
2023/07/31 00:44:20;;;;;;;14.02;5.22;;;17.50;99.90;;;;;;4162396;28;20052;-65
2023/07/31 00:46:21;;;;;;;11.38;3.60;;;17.50;99.90;;;;;;4168857;28;20123;-68
2023/07/31 00:48:22;;;;;;;10.43;4.32;;;17.50;99.90;;;;;;4162530;28;20033;-66
2023/07/31 00:50:25;;;;;;;10.30;4.13;;;17.60;99.90;;;;;;4175530;28;20676;-65
2023/07/31 00:52:25;;;;;;;14.75;4.78;;;17.60;99.90;;;;;;4178987;28;20112;-65
2023/07/31 00:54:26;;;;;;;11.30;4.70;;;17.60;99.90;;;;;;4166820;28;20048;-65
2023/07/31 00:56:27;;;;;;;8.80;4.03;;;17.60;99.90;;;;;;4171040;28;20071;-65
2023/07/31 00:58:28;;;;;;;11.52;3.42;;;17.60;99.90;;;;;;4168460;28;20036;-65
2023/07/31 01:00:29;;;;;;;9.05;4.40;;;17.60;99.90;;;;;;4175805;28;20317;-65
2023/07/31 01:02:29;;;;;;;10.15;4.07;;;17.60;99.90;;;;;;4174623;28;20029;-68
2023/07/31 01:04:30;;;;;;;9.57;3.90;;;17.60;99.90;;;;;;4171346;28;20068;-68
2023/07/31 01:06:43;;;;;;;11.48;4.60;;;17.60;99.90;;;;;;4169106;28;20037;-65
2023/07/31 01:09:14;;;;;;;10.25;4.13;;;17.60;99.90;;;;;;4153130;28;20089;-65
2023/07/31 01:11:19;;;;;;;9.38;4.65;;;17.60;99.90;;;;;;4161050;28;20044;-64
2023/07/31 01:13:21;;;;;;;9.18;3.95;;;17.60;99.90;;;;;;4163325;28;20895;-65
2023/07/31 01:15:21;;;;;;;8.03;3.60;;;17.60;99.90;;;;;;4165048;28;20029;-65
2023/07/31 01:17:22;;;;;;;9.85;4.18;;;17.70;99.90;;;;;;4173575;28;20036;-66
2023/07/31 01:19:26;;;;;;;9.05;3.92;;;17.60;99.90;;;;;;4165371;28;20041;-65
2023/07/31 01:21:36;;;;;;;9.35;3.35;;;17.70;99.90;;;;;;4176926;28;20025;-65
2023/07/31 01:24:00;;;;;;;7.00;3.35;;;17.60;99.90;;;;;;4168539;28;20029;-65
2023/07/31 01:26:15;;;;;;;6.88;3.47;;;17.60;99.90;;;;;;4169358;28;20033;-65
2023/07/31 01:28:40;;;;;;;12.93;4.50;;;17.60;99.90;;;;;;4178566;28;20489;-64
2023/07/31 01:30:48;;;;;;;10.63;4.22;;;17.60;99.90;;;;;;4161416;28;20037;-64
2023/07/31 01:32:50;;;;;;;11.25;3.90;;;17.60;99.90;;;;;;4160383;28;20144;-64
2023/07/31 01:34:52;;;;;;;;;;;17.60;99.90;;;;;;4162288;28;20063;-64
2023/07/31 01:36:52;;;;;;;8.15;3.70;;;17.50;99.90;;;;;;4160410;28;19914;-65
2023/07/31 01:38:58;;;;;;;9.93;4.65;;;17.60;99.90;;;;;;4175531;28;20040;-66
2023/07/31 01:40:58;;;;;;;9.30;3.38;;;17.60;99.90;;;;;;4150156;28;20037;-64
2023/07/31 01:42:59;;;;;;;10.20;3.75;;;17.60;99.90;;;;;;4156633;28;20060;-64
2023/07/31 01:44:59;;;;;;;9.23;4.07;;;17.60;99.90;;;;;;4164028;28;20045;-65
2023/07/31 01:47:00;;;;;;;13.30;4.20;;;17.50;99.90;;;;;;4164346;28;20458;-65
2023/07/31 01:49:01;;;;;;;9.82;3.90;;;17.50;99.90;;;;;;4169147;28;20035;-65
2023/07/31 01:51:02;;;;;;;8.80;4.15;;;17.50;99.90;;;;;;4142503;28;20038;-65
2023/07/31 01:53:02;;;;;;;7.20;3.70;;;17.50;99.90;;;;;;4147393;28;20034;-64
2023/07/31 01:55:04;;;;;;;13.50;4.57;;;17.50;99.90;;;;;;4148711;28;20107;-66
2023/07/31 01:57:04;;;;;;;9.20;3.92;;;17.50;99.90;;;;;;4155894;28;20053;-64
2023/07/31 01:59:05;;;;;;;9.40;3.92;;;17.50;99.90;;;;;;4165827;28;20404;-64
2023/07/31 02:01:06;;;;;;;9.45;4.15;;;17.50;99.90;;;;;;4159762;28;20038;-65
2023/07/31 02:03:06;;;;;;;8.40;3.75;;;17.50;99.90;;;;;;4158303;28;20440;-64
2023/07/31 02:05:07;;;;;;;11.10;3.78;;;17.50;99.90;;;;;;4151163;28;20037;-65
2023/07/31 02:07:08;;;;;;;20.25;4.72;;;17.50;99.90;;;;;;4163817;28;20224;-64
2023/07/31 02:09:08;;;;;;;10.68;4.57;;;17.50;99.90;;;;;;4177475;28;20027;-64
2023/07/31 02:11:09;;;;;;;16.95;5.00;;;17.50;99.90;;;;;;4143601;28;20032;-63
2023/07/31 02:13:10;;;;;;;9.85;4.28;;;17.50;99.90;;;;;;4144920;28;20144;-62
2023/07/31 02:15:10;;;;;;;6.95;3.97;;;17.50;99.90;;;;;;4153329;28;20446;-63
2023/07/31 02:17:11;;;;;;;12.48;5.07;;;17.60;99.90;;;;;;4156980;28;20052;-63
2023/07/31 02:19:11;;;;;;;7.82;4.30;;;17.50;99.90;;;;;;4150452;28;20498;-62
2023/07/31 02:21:12;;;;;;;11.50;4.18;;;17.50;99.90;;;;;;4159057;28;20038;-62
2023/07/31 02:23:13;;;;;;;15.45;4.53;;;17.50;99.90;;;;;;4158554;28;20057;-63
2023/07/31 02:25:14;;;;;;;8.30;3.78;;;17.50;99.90;;;;;;4154072;28;20486;-63
2023/07/31 02:27:14;;;;;;;12.32;4.93;;;17.50;99.90;;;;;;4156091;28;20037;-62
2023/07/31 02:29:15;;;;;;;10.98;4.40;;;17.50;99.90;;;;;;4161127;28;20401;-62
2023/07/31 02:31:15;;;;;;;10.48;4.47;;;17.50;99.90;;;;;;4159708;28;20104;-62
2023/07/31 02:33:16;;;;;;;13.95;4.75;;;17.50;99.90;;;;;;4163972;28;20084;-62
2023/07/31 02:35:18;;;;;;;7.80;3.65;;;17.50;99.90;;;;;;4171721;28;20037;-62
2023/07/31 02:37:18;;;;;;;12.52;4.05;;;17.50;99.90;;;;;;4152483;28;20026;-62
2023/07/31 02:39:19;;;;;;;16.17;4.35;;;17.50;99.90;;;;;;4159816;28;20048;-62
2023/07/31 02:41:20;;;;;;;9.98;3.97;;;17.50;99.90;;;;;;4171700;28;20489;-62
2023/07/31 02:43:20;;;;;;;9.60;3.95;;;17.50;99.90;;;;;;4155898;28;20088;-63
2023/07/31 02:45:21;;;;;;;12.70;4.63;;;17.40;99.90;;;;;;4162881;28;20056;-62
2023/07/31 02:47:22;;;;;;;11.57;4.32;;;17.40;99.90;;;;;;4173792;28;20025;-62
2023/07/31 02:49:23;;;;;;;9.93;3.78;;;17.40;99.90;;;;;;4158940;28;20493;-62
2023/07/31 02:51:23;;;;;;;12.50;4.78;;;17.50;99.90;;;;;;4165543;28;20116;-64
2023/07/31 02:53:24;;;;;;;7.97;3.85;;;17.50;99.90;;;;;;4166383;28;20028;-63
2023/07/31 02:55:25;;;;;;;9.68;4.53;;;17.50;99.90;;;;;;4171652;28;20034;-62
2023/07/31 02:57:25;;;;;;;16.08;5.00;;;17.40;99.90;;;;;;4146050;28;20418;-63
2023/07/31 02:59:28;;;;;;;10.32;4.50;;;17.50;99.90;;;;;;4170935;28;20025;-63
2023/07/31 03:01:28;;;;;;;;;;;17.50;99.90;;;;;;4160792;28;20045;-63
2023/07/31 03:03:29;;;;;;;8.93;3.67;;;17.50;99.90;;;;;;4165757;28;19909;-62
2023/07/31 03:05:29;;;;;;;11.85;3.97;;;17.50;99.90;;;;;;4158488;28;20041;-63
2023/07/31 03:07:30;;;;;;;11.88;4.13;;;17.50;99.90;;;;;;4158100;28;20059;-63
2023/07/31 03:09:31;;;;;;;12.50;4.43;;;17.50;99.90;;;;;;4160730;28;20033;-62
2023/07/31 03:11:31;;;;;;;12.88;3.67;;;17.60;99.90;;;;;;4168100;28;20033;-62
2023/07/31 03:13:32;;;;;;;9.23;4.07;;;17.50;99.90;;;;;;4165295;28;20493;-62
2023/07/31 03:15:32;;;;;;;10.52;4.47;;;17.60;99.90;;;;;;4171924;28;20025;-62
2023/07/31 03:17:33;;;;;;;14.82;4.47;;;17.60;99.90;;;;;;4152195;28;20505;-62
2023/07/31 03:19:34;;;;;;;16.77;4.63;;;17.50;99.90;;;;;;4173034;28;20037;-69
2023/07/31 03:21:34;;;;;;;8.70;3.60;;;17.60;99.90;;;;;;4173899;28;20044;-79
2023/07/31 03:23:35;;;;;;;11.52;4.22;;;17.60;99.90;;;;;;4143744;28;20041;-78
2023/07/31 03:25:36;;;;;;;16.10;4.63;;;17.60;99.90;;;;;;4170195;28;20044;-77
2023/07/31 03:27:36;;;;;;;11.73;5.13;;;17.60;99.90;;;;;;4170567;28;20021;-79
2023/07/31 03:29:37;;;;;;;8.75;4.18;;;17.60;99.90;;;;;;4166841;28;20033;-77
2023/07/31 03:31:37;;;;;;;9.93;4.20;;;17.60;99.90;;;;;;4169247;28;20033;-77
2023/07/31 03:33:38;;;;;;;12.45;4.20;;;17.60;99.90;;;;;;4143175;28;20041;-78
2023/07/31 03:35:39;;;;;;;10.93;4.65;;;17.60;99.90;;;;;;4153472;28;20111;-78
2023/07/31 03:37:39;;;;;;;7.53;4.00;;;17.60;99.90;;;;;;4173196;28;20025;-76
2023/07/31 03:39:40;;;;;;;10.55;4.05;;;17.60;99.90;;;;;;4177225;28;20071;-77
2023/07/31 03:41:41;;;;;;;7.63;3.53;;;17.60;99.90;;;;;;4176013;28;20072;-76
2023/07/31 03:43:41;;;;;;;8.00;3.42;;;17.60;99.90;;;;;;4168481;28;20037;-78
2023/07/31 03:45:42;;;;;;;7.80;3.95;;;17.70;99.90;;;;;;4151705;28;20044;-77
2023/07/31 03:47:42;;;;;;;11.77;4.25;;;17.70;99.90;;;;;;4170125;28;20036;-77
2023/07/31 03:49:43;;;;;;;13.18;4.03;;;17.70;99.90;;;;;;4176143;28;22420;-77
2023/07/31 03:51:44;;;;;;;9.18;4.25;;;17.70;99.90;;;;;;4176202;28;20040;-78
2023/07/31 03:53:45;;;;;;;10.93;4.07;;;17.70;99.90;;;;;;4170798;28;20425;-78
2023/07/31 03:55:46;;;;;;;8.73;3.50;;;17.70;99.90;;;;;;4145836;28;20041;-77
2023/07/31 03:57:46;;;;;;;10.23;3.90;;;17.70;99.90;;;;;;4168604;28;20124;-77
2023/07/31 03:59:47;;;;;;;11.00;4.15;;;17.80;99.90;;;;;;4159668;28;20045;-77
2023/07/31 04:01:47;;;;;;;13.98;4.53;;;17.70;99.90;;;;;;4160898;28;20034;-76
2023/07/31 04:03:48;;;;;;;10.20;3.85;;;17.80;99.90;;;;;;4157542;28;20099;-77
2023/07/31 04:05:48;;;;;;;7.47;3.78;;;17.80;99.90;;;;;;4167745;28;20473;-77
2023/07/31 04:07:49;;;;;;;8.70;3.50;;;17.80;99.90;;;;;;4176024;28;20048;-76
2023/07/31 04:09:49;;;;;;;8.55;4.10;;;17.80;99.90;;;;;;4179737;28;20108;-76
2023/07/31 04:11:50;;;;;;;8.85;3.90;;;17.80;99.90;;;;;;4179303;28;20493;-76
2023/07/31 04:13:51;;;;;;;11.30;4.07;;;17.80;99.90;;;;;;4178097;28;20037;-76
2023/07/31 04:15:51;;;;;;;12.45;4.80;;;17.80;99.90;;;;;;4166928;28;20044;-76
2023/07/31 04:17:52;;;;;;;11.98;3.83;;;17.80;99.90;;;;;;4171220;28;20116;-75
2023/07/31 04:19:53;;;;;;;8.88;3.92;;;17.80;99.90;;;;;;4179180;28;20037;-75
2023/07/31 04:21:53;;;;;;;7.55;3.45;;;17.80;99.90;;;;;;4179339;28;20037;-76
2023/07/31 04:23:55;;;;;;;7.30;3.55;;;17.90;99.90;;;;;;4169378;28;20045;-76
2023/07/31 04:25:56;;;;;;;9.48;3.70;;;17.90;99.90;;;;;;4172450;28;20029;-74
2023/07/31 04:27:57;;;;;;;6.63;3.50;;;17.90;99.90;;;;;;4149412;28;20072;-75
2023/07/31 04:29:57;;;;;;;11.13;3.95;;;17.90;99.90;;;;;;4156066;28;20041;-71
2023/07/31 04:31:58;;;;;;;10.07;3.67;;;17.90;99.90;;;;;;4145234;28;20413;-75
2023/07/31 04:33:58;;;;;;;11.70;4.32;;;18.00;99.90;;;;;;4165665;28;20037;-75
2023/07/31 04:35:59;;;;;;;8.57;3.83;;;18.00;99.90;;;;;;4166648;28;20029;-74
2023/07/31 04:38:00;;;;;;;11.55;4.50;;;17.90;99.90;;;;;;4176998;28;20071;-74
2023/07/31 04:40:00;;;;;;;9.25;3.53;;;18.00;99.90;;;;;;4164449;28;20482;-74
2023/07/31 04:42:01;;;;;;;8.45;3.72;;;17.90;99.90;;;;;;4162986;28;20036;-74
2023/07/31 04:44:03;;;;;;;8.32;3.90;;;18.00;99.90;;;;;;4159148;28;20532;-74
2023/07/31 04:46:04;;;;;;;9.48;4.53;;;17.90;99.90;;;;;;4153232;28;20045;-74
2023/07/31 04:48:05;;;;;;;8.40;3.45;;;18.00;99.90;;;;;;4163278;28;20037;-74
2023/07/31 04:50:06;;;;;;;8.98;4.10;;;18.00;99.90;;;;;;4155585;28;20041;-76
2023/07/31 04:52:06;;;;;;;10.30;3.80;;;18.00;99.90;;;;;;4162604;28;20131;-75
2023/07/31 04:54:07;;;;;;;9.43;3.90;;;18.00;99.90;;;;;;4157275;28;20050;-75
2023/07/31 04:56:08;;;;;;;7.65;3.50;;;18.00;99.90;;;;;;4159008;28;20099;-74
2023/07/31 04:58:08;;;;;;;6.75;3.63;;;18.00;99.90;;;;;;4146410;28;20033;-75
2023/07/31 05:00:09;;;;;;;10.35;4.13;;;18.00;99.90;;;;;;4169372;28;20040;-76
2023/07/31 05:02:13;;;;;;;9.10;3.80;;;18.00;99.90;;;;;;4165086;28;20036;-75
2023/07/31 05:04:14;;;;;;;10.18;3.75;;;18.00;99.90;;;;;;4178778;28;20321;-74
2023/07/31 05:06:15;;;;;;;8.18;3.97;;;18.00;99.90;;;;;;4158723;28;20037;-74
2023/07/31 05:08:17;;;;;;;6.82;3.63;;;18.00;99.90;;;;;;4164545;28;20112;-75
2023/07/31 05:10:18;;;;;;;9.50;4.05;;;18.00;99.90;;;;;;4176756;28;20025;-74
2023/07/31 05:12:18;;;;;;;6.97;3.75;;;18.00;99.90;;;;;;4157485;28;20497;-74
2023/07/31 05:14:20;;;;;;;9.02;4.05;;;18.00;99.90;;;;;;4175502;28;20041;-74
2023/07/31 05:16:20;;;;;;;9.35;4.00;;;18.00;99.90;;;;;;4171196;28;20377;-75
2023/07/31 05:18:21;;;;;;;9.52;4.07;;;18.10;99.90;;;;;;4166124;28;20053;-75
2023/07/31 05:20:21;;;;;;;7.30;3.83;;;18.10;99.90;;;;;;4164418;28;20057;-75
2023/07/31 05:22:22;;;;;;;6.40;3.67;;;18.10;99.90;;;;;;4173130;28;20057;-75
2023/07/31 05:24:23;;;;;;;7.35;3.83;;;18.10;99.90;;;;;;4155979;28;20060;-74
2023/07/31 05:26:23;;;;;;;7.47;3.05;;;18.10;99.90;;;;;;4150874;28;20038;-75
2023/07/31 05:28:24;;;;;;;10.43;4.53;;;18.10;99.90;;;;;;4142878;28;20030;-75
2023/07/31 05:30:25;;;;;;;9.88;3.70;;;18.10;99.90;;;;;;4156620;28;20139;-75
2023/07/31 05:32:25;;;;;;;9.38;3.78;;;18.10;99.90;;;;;;4179943;28;20033;-74
2023/07/31 05:34:26;;;;;;;5.22;3.45;;;18.10;99.90;;;;;;4153834;28;20022;-74
2023/07/31 05:36:26;;;;;;;11.32;4.15;;;18.10;99.90;;;;;;4171377;28;20123;-75
2023/07/31 05:38:27;;;;;;;5.03;3.30;;;18.10;99.90;;;;;;4169817;28;20032;-75
2023/07/31 05:40:28;;;;;;;5.85;3.67;;;18.10;99.90;;;;;;4170704;28;20029;-75
2023/07/31 05:42:28;;;;;;;7.05;3.58;;;18.10;99.90;;;;;;4179156;28;20052;-75
2023/07/31 05:44:29;;;;;;;6.10;3.33;;;18.10;99.90;;;;;;4175328;28;20158;-74
2023/07/31 05:46:31;;;;;;;6.38;3.53;;;18.10;99.90;;;;;;4169021;28;20033;-74
2023/07/31 05:48:31;;;;;;;8.52;3.78;;;18.10;99.90;;;;;;4165554;28;20428;-74
2023/07/31 05:50:32;;;;;;;8.98;4.35;;;18.10;99.90;;;;;;4177461;28;20029;-74
2023/07/31 05:52:32;;;;;;;5.97;3.65;;;18.10;99.90;;;;;;4160439;28;20037;-74
2023/07/31 05:54:33;;;;;;;8.48;4.30;;;18.10;99.90;;;;;;4163425;28;20025;-75
2023/07/31 05:56:34;;;;;;;9.80;4.60;;;18.10;99.90;;;;;;4170041;28;20508;-74
2023/07/31 05:58:34;;;;;;;6.53;3.92;;;18.10;99.90;;;;;;4171030;28;20014;-74
2023/07/31 06:00:35;;;;;;;6.38;3.40;;;18.20;99.90;;;;;;4176329;28;20035;-75
2023/07/31 06:02:36;;;;;;;6.68;3.75;;;18.10;99.90;;;;;;4178348;28;20025;-74
2023/07/31 06:04:37;;;;;;;6.93;3.80;;;18.20;99.90;;;;;;4162854;28;20056;-74
2023/07/31 06:06:38;;;;;;;9.20;3.88;;;18.10;99.90;;;;;;4169426;28;20033;-74
2023/07/31 06:08:39;;;;;;;4.88;3.08;;;18.20;99.90;;;;;;4164219;28;20068;-74
2023/07/31 06:10:40;;;;;;;7.82;3.60;;;18.20;99.90;;;;;;4162297;28;20509;-74
2023/07/31 06:12:41;;;;;;;7.25;4.10;;;18.20;99.90;;;;;;4160117;28;20133;-74
2023/07/31 06:14:41;;;;;;;8.13;4.00;;;18.10;99.90;;;;;;4162453;28;20702;-74
2023/07/31 06:16:43;;;;;;;8.27;3.65;;;18.10;99.90;;;;;;4163707;28;20073;-71
2023/07/31 06:18:44;;;;;;;7.82;3.88;;;18.10;99.90;;;;;;4179323;28;20044;-74
2023/07/31 06:20:45;;;;;;;14.40;3.60;;;18.10;99.90;;;;;;4174566;28;20045;-75
2023/07/31 06:22:45;;;;;;;7.72;4.03;;;18.10;99.90;;;;;;4176903;28;20043;-73
2023/07/31 06:24:46;;;;;;;8.73;3.85;;;18.10;99.90;;;;;;4177000;28;20037;-74
2023/07/31 06:26:47;;;;;;;6.93;3.60;;;18.10;99.90;;;;;;4165676;28;20493;-74
2023/07/31 06:28:47;;;;;;;6.60;3.72;;;18.10;99.90;;;;;;4159766;28;20111;-73
2023/07/31 06:30:48;;;;;;;8.30;3.38;;;18.00;99.90;;;;;;4160566;28;20037;-73
2023/07/31 06:32:49;;;;;;;7.32;4.22;;;18.00;99.90;;;;;;4162789;28;20512;-74
2023/07/31 06:34:49;;;;;;;5.70;2.97;;;18.10;99.90;;;;;;4175553;28;20029;-74
2023/07/31 06:36:50;;;;;;;6.75;3.35;;;18.00;99.90;;;;;;4146202;28;20061;-74
2023/07/31 06:38:51;;;;;;;7.10;3.78;;;18.00;99.90;;;;;;4162348;28;20034;-74
2023/07/31 06:40:52;;;;;;;7.03;3.78;;;18.00;99.90;;;;;;4163218;28;20037;-74
2023/07/31 06:42:52;;;;;;;7.07;3.50;;;18.00;99.90;;;;;;4176906;28;20031;-73
2023/07/31 06:44:53;;;;;;;6.57;3.58;;;18.00;99.90;;;;;;4164571;28;20065;-74
2023/07/31 06:46:54;;;;;;;6.65;3.15;;;18.00;99.90;;;;;;4163216;28;20063;-73
2023/07/31 06:48:54;;;;;;;4.70;3.08;;;18.00;99.90;;;;;;4169990;28;20393;-74
2023/07/31 06:50:55;;;;;;;8.07;3.72;;;18.00;99.90;;;;;;4170861;28;20040;-74
2023/07/31 06:52:56;;;;;;;5.80;3.00;;;17.90;99.90;;;;;;4145688;28;20026;-74
2023/07/31 06:55:19;;;;;;;8.65;4.05;;;17.90;99.90;;;;;;4174006;28;20091;-71
2023/07/31 06:57:19;;;;;;;5.35;3.17;;;17.90;99.90;;;;;;4169220;28;20040;-71
2023/07/31 06:59:20;;;;;;;5.15;3.28;;;17.90;99.90;;;;;;4158608;28;20029;-71
2023/07/31 07:01:21;;;;;;;8.00;3.65;;;17.80;99.90;;;;;;4173268;28;20038;-72
2023/07/31 07:03:21;;;;;;;5.97;3.35;;;17.90;99.90;;;;;;4176689;28;20037;-71
2023/07/31 07:05:22;;;;;;;4.97;2.80;;;17.80;99.90;;;;;;4162776;28;20129;-71
2023/07/31 07:07:22;;;;;;;5.97;3.05;;;17.80;99.90;;;;;;4166069;28;20044;-71
2023/07/31 07:09:23;;;;;;;5.72;3.28;;;17.80;99.90;;;;;;4157877;28;20040;-71
2023/07/31 07:11:24;;;;;;;3.80;2.55;;;17.80;99.90;;;;;;4152993;28;20429;-71
2023/07/31 07:13:24;;;;;;;6.05;3.40;;;17.80;99.90;;;;;;4178741;28;20432;-72
2023/07/31 07:15:25;;;;;;;7.15;3.42;;;17.80;99.90;;;;;;4166079;28;20091;-71
2023/07/31 07:17:27;;;;;;;5.88;3.17;;;17.80;99.90;;;;;;4168374;28;20485;-72
2023/07/31 07:19:27;;;;;;;8.80;3.50;;;17.80;99.90;;;;;;4163267;28;20080;-72
2023/07/31 07:21:28;;;;;;;8.57;3.15;;;17.80;99.90;;;;;;4160732;28;20025;-71
2023/07/31 07:23:29;;;;;;;8.18;3.90;;;17.70;99.90;;;;;;4175908;28;20033;-71
2023/07/31 07:25:29;;;;;;;8.00;3.70;;;17.70;99.90;;;;;;4156193;28;20065;-71
2023/07/31 07:27:30;;;;;;;5.13;3.25;;;17.70;99.90;;;;;;4162157;28;20056;-71
2023/07/31 07:29:30;;;;;;;4.95;3.42;;;17.70;99.90;;;;;;4165160;28;20029;-71
2023/07/31 07:31:31;;;;;;;8.50;3.45;;;17.70;99.90;;;;;;4175292;28;20037;-72
2023/07/31 07:33:32;;;;;;;6.93;3.70;;;17.70;99.90;;;;;;4177495;28;20586;-71
2023/07/31 07:35:36;;;;;;;6.57;3.20;;;17.60;99.90;;;;;;4171511;28;24710;-73
2023/07/31 07:37:36;;;;;;;6.05;2.83;;;17.60;99.90;;;;;;4169186;28;20040;-72
2023/07/31 07:39:37;;;;;;;6.50;3.58;;;17.60;99.90;;;;;;4142634;28;20109;-71
2023/07/31 07:41:38;;;;;;;4.75;2.45;;;17.50;99.90;;;;;;4165854;28;20108;-71
2023/07/31 07:43:38;;;;;;;5.55;2.58;;;17.50;99.90;;;;;;4162371;28;20037;-71
2023/07/31 07:45:40;;;;;;;4.10;2.45;;;17.40;99.90;;;;;;4164076;28;20132;-71
2023/07/31 07:47:41;;;;;;;3.88;2.20;;;17.40;99.90;;;;;;4167043;28;20048;-71
2023/07/31 07:49:41;;;;;;;5.72;2.95;;;17.50;99.90;;;;;;4143364;28;20037;-72
2023/07/31 07:51:42;;;;;;;5.93;2.92;;;17.40;99.90;;;;;;4170321;28;20041;-72
2023/07/31 07:53:43;;;;;;;4.78;2.28;;;17.40;99.90;;;;;;4161835;28;20125;-71
2023/07/31 07:55:43;;;;;;;4.85;2.42;;;17.40;99.90;;;;;;4165027;28;20061;-71
2023/07/31 07:57:44;;;;;;;4.15;2.38;;;17.40;99.90;;;;;;4173166;28;20029;-72
2023/07/31 07:59:45;;;;;;;3.22;2.30;;;17.40;99.90;;;;;;4171261;28;20498;-63
2023/07/31 08:01:45;;;;;;;3.42;2.10;;;17.40;99.90;;;;;;4166716;28;20047;-66
2023/07/31 08:03:47;;;;;;;3.30;2.03;;;17.40;99.90;;;;;;4169501;28;20225;-65
2023/07/31 08:05:48;;;;;;;5.15;2.53;;;17.30;99.90;;;;;;4163186;28;20044;-66
2023/07/31 08:07:48;;;;;;;4.50;2.40;;;17.40;99.90;;;;;;4157026;28;20059;-65
2023/07/31 08:09:49;;;;;;;4.75;2.55;;;17.30;99.90;;;;;;4156568;28;20053;-65
2023/07/31 08:11:49;;;;;;;4.65;2.47;;;17.30;99.90;;;;;;4157910;28;20036;-65
2023/07/31 08:13:50;;;;;;;4.30;2.10;;;17.40;99.90;;;;;;4153974;28;20534;-66
2023/07/31 08:15:50;;;;;;;4.15;2.20;;;17.40;99.90;;;;;;4156283;28;20041;-64
2023/07/31 08:17:51;;;;;;;6.35;2.25;;;17.40;99.90;;;;;;4160659;28;20045;-66
2023/07/31 08:19:52;;;;;;;4.10;2.17;;;17.40;99.90;;;;;;4143954;28;20042;-65
2023/07/31 08:21:52;;;;;;;3.45;2.17;;;17.40;99.90;;;;;;4155976;28;20029;-65
2023/07/31 08:23:53;;;;;;;6.07;2.35;;;17.40;99.90;;;;;;4162731;28;20405;-65
2023/07/31 08:25:53;;;;;;;7.47;2.67;;;17.40;99.90;;;;;;4153772;28;20054;-64
2023/07/31 08:27:54;;;;;;;3.90;2.05;;;17.40;99.90;;;;;;4165703;28;20044;-65
2023/07/31 08:29:55;;;;;;;3.28;2.38;;;17.50;99.90;;;;;;4174912;28;20389;-65
2023/07/31 08:31:55;;;;;;;4.57;2.63;;;17.50;99.90;;;;;;4155453;28;20494;-64
2023/07/31 08:33:56;;;;;;;4.00;2.30;;;17.40;99.90;;;;;;4158205;28;20108;-65
2023/07/31 08:35:57;;;;;;;7.05;2.83;;;17.50;99.90;;;;;;4148781;28;20040;-64
2023/07/31 08:37:57;;;;;;;4.30;2.50;;;17.40;99.90;;;;;;4146293;28;20042;-65
2023/07/31 08:39:58;;;;;;;6.68;2.83;;;17.40;99.90;;;;;;4150537;28;20034;-65
2023/07/31 08:41:59;;;;;;;2.97;1.80;;;17.40;99.90;;;;;;4151400;28;20113;-64
2023/07/31 08:44:02;;;;;;;3.75;2.60;;;17.40;99.90;;;;;;4146128;28;20101;-65
2023/07/31 08:46:03;;;;;;;5.07;3.00;;;17.40;99.90;;;;;;4133435;28;20079;-65
2023/07/31 08:48:04;;;;;;;4.55;2.20;;;17.40;99.90;;;;;;4165367;28;20395;-65
2023/07/31 08:50:06;;;;;;;3.25;2.10;;;17.50;99.90;;;;;;4167012;28;20032;-65
2023/07/31 08:52:07;;;;;;;3.67;2.30;;;17.50;99.90;;;;;;4178517;28;20079;-65
2023/07/31 08:54:07;;;;;;;4.35;2.10;;;17.50;99.90;;;;;;4148398;28;20034;-65
2023/07/31 08:56:09;;;;;;;4.53;2.42;;;17.60;99.90;;;;;;4164940;28;20091;-65
2023/07/31 08:58:12;;;;;;;4.68;2.97;;;17.60;99.90;;;;;;4173001;28;20040;-65
2023/07/31 09:00:14;;;;;;;5.95;2.92;;;17.50;99.90;;;;;;4144669;28;20057;-65
2023/07/31 09:02:17;;;;;;;4.33;2.30;;;17.60;99.90;;;;;;4162810;28;20030;-65
2023/07/31 09:04:19;;;;;;;4.03;2.20;;;17.60;99.90;;;;;;4162520;28;20060;-65
2023/07/31 09:06:23;;;;;;;5.63;2.58;;;17.60;99.90;;;;;;4163063;28;20549;-65
2023/07/31 09:08:29;;;;;;;3.75;2.10;;;17.60;99.90;;;;;;4145177;28;20496;-65
2023/07/31 09:10:30;;;;;;;5.03;2.58;;;17.70;99.90;;;;;;4145283;28;20038;-67
2023/07/31 09:12:31;;;;;;;4.63;2.40;;;17.60;99.90;;;;;;4164338;28;20033;-67
2023/07/31 09:14:33;;;;;;;4.45;2.40;;;17.70;99.90;;;;;;4153701;28;20030;-65
2023/07/31 09:16:34;;;;;;;4.32;2.53;;;17.70;99.90;;;;;;4146277;28;20041;-66
2023/07/31 09:18:53;;;;;;;5.78;2.55;;;17.70;99.90;;;;;;4164511;28;20041;-66
2023/07/31 09:21:04;;;;;;;4.57;2.65;;;17.80;99.90;;;;;;4162119;28;20123;-70
2023/07/31 09:23:08;;;;;;;3.75;2.10;;;17.80;99.90;;;;;;4160753;28;20037;-70
2023/07/31 09:25:26;;;;;;;5.68;2.58;;;17.80;99.90;;;;;;4167923;28;20037;-71
2023/07/31 09:27:26;;;;;;;5.95;2.78;;;17.80;99.90;;;;;;4169779;28;20057;-71
2023/07/31 09:29:29;;;;;;;4.60;2.10;;;17.80;99.90;;;;;;4162692;28;20022;-70
2023/07/31 09:31:41;;;;;;;4.18;2.45;;;17.80;99.90;;;;;;4172851;28;20040;-70
2023/07/31 09:33:55;;;;;;;3.28;2.05;;;17.80;99.90;;;;;;4175367;28;20032;-68
2023/07/31 09:35:59;;;;;;;4.80;2.40;;;17.90;99.90;;;;;;4168557;28;20041;-72
2023/07/31 09:38:04;;;;;;;4.35;2.33;;;17.80;99.90;;;;;;4175363;28;20049;-72
2023/07/31 09:40:05;;;;;;;4.38;2.42;;;17.90;99.90;;;;;;4178890;28;20052;-73
2023/07/31 09:42:06;;;;;;;5.13;2.55;;;17.90;99.90;;;;;;4176404;28;20186;-71
2023/07/31 09:44:07;;;;;;;3.72;2.35;;;17.80;99.90;;;;;;4173841;28;20124;-72
2023/07/31 09:46:13;;;;;;;3.35;2.30;;;17.90;99.90;;;;;;4176016;28;20130;-71
2023/07/31 09:48:17;;;;;;;3.47;2.33;;;17.90;99.90;;;;;;4174085;28;20497;-70
2023/07/31 09:50:22;;;;;;;5.28;2.03;;;17.90;99.90;;;;;;4173190;28;20458;-71
2023/07/31 09:52:27;;;;;;;4.03;2.13;;;18.00;99.90;;;;;;4175954;28;20532;-72
2023/07/31 09:54:28;;;;;;;3.05;1.90;;;17.90;99.90;;;;;;4176934;28;20072;-71
2023/07/31 09:56:28;;;;;;;5.47;2.33;;;18.00;99.90;;;;;;4168278;28;20037;-72
2023/07/31 09:58:31;;;;;;;3.78;2.28;;;18.00;99.90;;;;;;4176662;28;20029;-71
2023/07/31 10:00:32;;;;;;;4.63;2.38;;;18.00;99.90;;;;;;4146880;28;20026;-71
2023/07/31 10:02:33;;;;;;;2.95;2.00;;;18.00;99.90;;;;;;4147591;28;20124;-71
2023/07/31 10:04:34;;;;;;;3.90;2.22;;;18.00;99.90;;;;;;4168808;28;20048;-71
2023/07/31 10:06:36;;;;;;;3.47;2.20;;;18.00;99.90;;;;;;4155595;28;20058;-71
2023/07/31 10:08:38;;;;;;;4.20;2.72;;;18.10;99.90;;;;;;4172825;28;20025;-71
2023/07/31 10:10:42;;;;;;;4.63;2.73;;;18.10;99.90;;;;;;4167912;28;20531;-72
2023/07/31 10:12:45;;;;;;;5.30;2.67;;;18.00;99.90;;;;;;4174807;28;20087;-71
2023/07/31 10:14:46;;;;;;;3.03;2.25;;;18.00;99.90;;;;;;4172803;28;20405;-70
2023/07/31 10:16:48;;;;;;;4.90;2.72;;;18.00;99.90;;;;;;4170876;28;20037;-71
2023/07/31 10:18:49;;;;;;;6.38;2.42;;;18.00;99.90;;;;;;4170794;28;20033;-70
2023/07/31 10:20:51;;;;;;;3.25;2.25;;;18.10;99.90;;;;;;4172494;28;20571;-71
2023/07/31 10:22:53;;;;;;;4.57;2.58;;;18.10;99.90;;;;;;4174120;28;20087;-71
2023/07/31 10:24:57;;;;;;;3.10;2.35;;;18.10;99.90;;;;;;4168461;28;20037;-72
2023/07/31 10:26:59;;;;;;;3.97;2.60;;;18.20;99.90;;;;;;4170277;28;20037;-71
2023/07/31 10:29:01;;;;;;;4.38;2.63;;;18.20;99.90;;;;;;4147969;28;20033;-71
2023/07/31 10:31:04;;;;;;;3.45;2.63;;;18.20;99.90;;;;;;4171528;28;20068;-72